Time;durP1;ratioP1;P1;durP2;ratioP2;P2;SDS_P1;SDS_P2;PMS_P1;PMS_P2;Temp;Humidity;BMP_temperature;BMP_pressure;BME280_temperature;BME280_humidity;BME280_pressure;Samples;Min_cycle;Max_cycle;Signal;HPM_P1;HPM_P2
2021/04/18 00:02:17;;;;;;;8.70;3.90;;;9.00;91.00;;;;;;5074335;28;20219;-81
2021/04/18 00:04:44;;;;;;;8.10;4.63;;;8.90;91.00;;;;;;5081996;28;20331;-78
2021/04/18 00:07:11;;;;;;;5.05;4.32;;;8.80;91.10;;;;;;5081423;28;20198;-80
2021/04/18 00:09:37;;;;;;;6.53;4.50;;;8.80;91.20;;;;;;5078627;28;20204;-78
2021/04/18 00:12:04;;;;;;;6.95;4.20;;;8.80;91.30;;;;;;5082167;28;20273;-79
2021/04/18 00:14:30;;;;;;;8.38;4.35;;;8.70;91.30;;;;;;5078840;28;20315;-78
2021/04/18 00:16:58;;;;;;;6.30;4.28;;;8.60;91.40;;;;;;5081988;28;20291;-78
2021/04/18 00:19:24;;;;;;;4.32;3.90;;;8.50;91.40;;;;;;5077211;28;20196;-78
2021/04/18 00:21:50;;;;;;;3.97;3.65;;;8.50;91.50;;;;;;5082201;28;20199;-77
2021/04/18 00:24:17;;;;;;;5.90;4.20;;;8.40;91.50;;;;;;5081947;28;20204;-78
2021/04/18 00:26:43;;;;;;;4.82;4.43;;;8.40;91.60;;;;;;5078743;28;20296;-78
2021/04/18 00:29:10;;;;;;;6.85;3.80;;;8.30;91.60;;;;;;5081124;28;20203;-80
2021/04/18 00:31:36;;;;;;;4.00;3.70;;;8.30;91.70;;;;;;5079613;28;20286;-78
2021/04/18 00:34:03;;;;;;;3.92;3.60;;;8.20;91.80;;;;;;5081062;28;20261;-78
2021/04/18 00:36:30;;;;;;;7.95;3.60;;;8.10;91.80;;;;;;5078197;28;20206;-78
2021/04/18 00:38:57;;;;;;;4.93;3.65;;;8.00;91.90;;;;;;5074306;28;20196;-81
2021/04/18 00:41:23;;;;;;;4.95;4.22;;;7.90;91.90;;;;;;5083536;28;20217;-77
2021/04/18 00:43:49;;;;;;;5.03;3.95;;;7.80;91.90;;;;;;5081701;28;20299;-78
2021/04/18 00:46:16;;;;;;;6.55;4.50;;;7.70;92.00;;;;;;5082179;28;20256;-78
2021/04/18 00:48:43;;;;;;;5.28;4.05;;;7.60;92.10;;;;;;5077579;28;20196;-78
2021/04/18 00:51:11;;;;;;;4.32;3.92;;;7.50;92.20;;;;;;5083918;28;20199;-78
2021/04/18 00:53:38;;;;;;;8.18;4.93;;;7.40;92.30;;;;;;5077183;28;20214;-79
2021/04/18 00:56:06;;;;;;;5.18;4.43;;;7.40;92.40;;;;;;5084167;28;20214;-79
2021/04/18 00:58:35;;;;;;;9.25;3.75;;;7.40;92.60;;;;;;5086238;28;20229;-77
2021/04/18 01:01:01;;;;;;;4.05;3.75;;;7.30;92.80;;;;;;5082196;28;20381;-78
2021/04/18 01:03:27;;;;;;;6.80;4.28;;;7.20;92.80;;;;;;5082437;28;20689;-80
2021/04/18 01:05:54;;;;;;;6.10;4.50;;;7.20;92.90;;;;;;5085387;28;20195;-80
2021/04/18 01:08:21;;;;;;;5.95;5.00;;;7.10;93.00;;;;;;5082642;28;20929;-78
2021/04/18 01:10:47;;;;;;;4.63;4.15;;;7.10;93.10;;;;;;5086318;28;20652;-78
2021/04/18 01:13:14;;;;;;;6.60;4.50;;;7.10;93.20;;;;;;5084781;28;20219;-77
2021/04/18 01:15:40;;;;;;;4.93;4.32;;;7.00;93.20;;;;;;5079187;28;20523;-78
2021/04/18 01:18:07;;;;;;;7.45;4.57;;;7.00;93.40;;;;;;5082198;28;20611;-77
2021/04/18 01:20:33;;;;;;;5.63;4.35;;;7.00;93.40;;;;;;5081029;28;20197;-78
2021/04/18 01:23:00;;;;;;;5.35;4.00;;;6.90;93.30;;;;;;5081857;28;20192;-78
2021/04/18 01:25:27;;;;;;;9.23;4.60;;;6.90;93.70;;;;;;5084671;28;20203;-79
2021/04/18 01:27:55;;;;;;;11.48;4.00;;;6.90;93.40;;;;;;5084218;28;20211;-77
2021/04/18 01:30:25;;;;;;;7.25;5.03;;;6.80;93.50;;;;;;5081474;28;20203;-78
2021/04/18 01:32:53;;;;;;;7.53;6.60;;;6.80;93.60;;;;;;5079614;28;20200;-78
2021/04/18 01:35:20;;;;;;;5.22;4.00;;;6.70;93.60;;;;;;5082608;28;20201;-78
2021/04/18 01:37:47;;;;;;;7.50;5.00;;;6.70;93.60;;;;;;5084456;28;20203;-78
2021/04/18 01:40:17;;;;;;;7.25;5.00;;;6.70;93.70;;;;;;5078715;28;20618;-78
2021/04/18 01:42:45;;;;;;;8.32;4.57;;;6.70;93.80;;;;;;5088130;28;20199;-79
2021/04/18 01:45:12;;;;;;;4.65;4.25;;;6.70;93.90;;;;;;5077451;28;20196;-78
2021/04/18 01:47:39;;;;;;;6.63;5.35;;;6.70;93.90;;;;;;5080578;28;20201;-78
2021/04/18 01:50:08;;;;;;;4.78;4.30;;;6.70;93.90;;;;;;5081726;28;20184;-80
2021/04/18 01:52:36;;;;;;;6.20;4.13;;;6.80;93.90;;;;;;5083610;28;20233;-78
2021/04/18 01:55:03;;;;;;;7.60;5.40;;;6.70;93.90;;;;;;5084263;28;20365;-79
2021/04/18 01:57:31;;;;;;;4.82;4.30;;;6.80;94.00;;;;;;5078858;28;21078;-80
2021/04/18 01:59:58;;;;;;;5.85;4.75;;;6.80;94.00;;;;;;5080352;28;20224;-78
2021/04/18 02:02:24;;;;;;;7.65;4.43;;;6.80;94.10;;;;;;5083209;28;20217;-78
2021/04/18 02:04:53;;;;;;;4.85;4.45;;;6.80;94.10;;;;;;5082560;28;20200;-80
2021/04/18 02:07:19;;;;;;;4.68;3.90;;;6.80;94.20;;;;;;5084252;28;20202;-78
2021/04/18 02:09:46;;;;;;;4.63;4.22;;;6.80;94.20;;;;;;5078473;28;20681;-77
2021/04/18 02:12:13;;;;;;;4.80;4.18;;;6.80;94.40;;;;;;5079124;28;20249;-78
2021/04/18 02:14:40;;;;;;;4.68;4.20;;;6.80;94.40;;;;;;5083452;28;20224;-80
2021/04/18 02:17:07;;;;;;;4.25;3.85;;;6.80;94.40;;;;;;5079288;28;20234;-78
2021/04/18 02:19:34;;;;;;;6.97;4.60;;;6.80;94.40;;;;;;5084625;28;20199;-78
2021/04/18 02:22:01;;;;;;;5.47;4.30;;;6.80;94.50;;;;;;5080563;28;20537;-78
2021/04/18 02:24:27;;;;;;;11.40;5.05;;;6.80;94.60;;;;;;5084480;28;20590;-79
2021/04/18 02:26:54;;;;;;;6.45;4.90;;;6.90;94.70;;;;;;5077158;28;20284;-79
2021/04/18 02:29:20;;;;;;;6.68;4.85;;;6.90;94.80;;;;;;5089473;28;20204;-79
2021/04/18 02:31:48;;;;;;;6.50;4.95;;;6.90;95.20;;;;;;5078545;28;20249;-79
2021/04/18 02:34:14;;;;;;;5.40;4.15;;;7.00;94.90;;;;;;5082832;28;20223;-79
2021/04/18 02:36:41;;;;;;;4.90;4.40;;;7.00;94.80;;;;;;5073694;28;20188;-78
2021/04/18 02:39:07;;;;;;;4.65;4.25;;;7.00;95.00;;;;;;5080262;28;20192;-79
2021/04/18 02:41:34;;;;;;;4.47;4.07;;;7.00;95.10;;;;;;5082553;28;20520;-79
2021/04/18 02:44:01;;;;;;;6.95;4.47;;;7.10;95.20;;;;;;5080790;28;20200;-77
2021/04/18 02:46:27;;;;;;;5.30;4.57;;;7.10;95.30;;;;;;5084177;28;20200;-78
2021/04/18 02:48:55;;;;;;;5.35;4.07;;;7.10;95.30;;;;;;5080278;28;20222;-79
2021/04/18 02:51:21;;;;;;;6.38;4.32;;;7.10;95.70;;;;;;5078992;28;20531;-77
2021/04/18 02:53:48;;;;;;;4.68;4.20;;;7.10;95.50;;;;;;5082507;28;20605;-78
2021/04/18 02:56:14;;;;;;;4.55;4.13;;;7.20;95.50;;;;;;5078402;28;20534;-78
2021/04/18 02:58:40;;;;;;;8.77;4.78;;;7.20;95.60;;;;;;5078450;28;20200;-78
2021/04/18 03:01:07;;;;;;;6.45;4.32;;;7.20;95.70;;;;;;5080137;28;21834;-78
2021/04/18 03:03:33;;;;;;;5.38;4.47;;;7.20;95.70;;;;;;5084089;28;20196;-81
2021/04/18 03:06:01;;;;;;;11.40;5.32;;;7.20;95.70;;;;;;5080755;28;20773;-78
2021/04/18 03:08:27;;;;;;;6.60;4.90;;;7.20;95.70;;;;;;5082626;28;20272;-78
2021/04/18 03:10:54;;;;;;;6.53;5.10;;;7.20;96.10;;;;;;5075243;28;20291;-79
2021/04/18 03:13:20;;;;;;;5.85;4.13;;;7.20;95.70;;;;;;5079263;28;20226;-78
2021/04/18 03:15:46;;;;;;;19.52;5.60;;;7.20;95.70;;;;;;5083622;28;20196;-78
2021/04/18 03:18:13;;;;;;;7.13;5.25;;;7.20;95.70;;;;;;5084772;28;20201;-78
2021/04/18 03:20:39;;;;;;;10.07;4.32;;;7.20;95.60;;;;;;5085142;28;20349;-78
2021/04/18 03:23:06;;;;;;;7.22;4.70;;;7.20;95.70;;;;;;5082037;28;20208;-78
2021/04/18 03:25:33;;;;;;;7.13;4.78;;;7.20;95.70;;;;;;5080560;28;20241;-78
2021/04/18 03:27:59;;;;;;;5.03;4.38;;;7.10;95.60;;;;;;5079964;28;20349;-81
2021/04/18 03:30:26;;;;;;;5.25;4.82;;;7.10;95.60;;;;;;5082872;28;20192;-78
2021/04/18 03:32:52;;;;;;;5.85;4.95;;;7.10;95.70;;;;;;5086173;28;20192;-78
2021/04/18 03:35:19;;;;;;;6.70;4.80;;;7.10;95.60;;;;;;5077431;28;20227;-79
2021/04/18 03:37:45;;;;;;;7.93;5.03;;;7.00;95.60;;;;;;5081391;28;20749;-79
2021/04/18 03:40:13;;;;;;;9.75;5.70;;;7.00;95.60;;;;;;5080215;28;20596;-79
2021/04/18 03:42:40;;;;;;;6.00;4.47;;;7.00;95.70;;;;;;5077404;28;20205;-79
2021/04/18 03:45:08;;;;;;;5.88;4.60;;;6.90;95.70;;;;;;5081927;28;20203;-78
2021/04/18 03:47:34;;;;;;;11.65;5.97;;;6.90;95.70;;;;;;5082153;28;20191;-78
2021/04/18 03:50:01;;;;;;;5.43;4.10;;;6.90;95.80;;;;;;5084776;28;20260;-77
2021/04/18 03:52:28;;;;;;;5.07;4.57;;;6.90;95.90;;;;;;5073931;28;20296;-79
2021/04/18 03:54:55;;;;;;;5.43;4.55;;;6.80;95.90;;;;;;5078256;28;20223;-78
2021/04/18 03:57:23;;;;;;;6.05;4.80;;;6.80;96.00;;;;;;5083660;28;20282;-78
2021/04/18 03:59:49;;;;;;;7.15;5.00;;;6.80;96.00;;;;;;5079410;28;20366;-78
2021/04/18 04:02:16;;;;;;;8.15;4.80;;;6.80;96.10;;;;;;5086024;28;20713;-78
2021/04/18 04:04:42;;;;;;;7.45;6.00;;;6.80;96.20;;;;;;5083858;28;20199;-78
2021/04/18 04:07:09;;;;;;;18.15;5.28;;;6.80;96.20;;;;;;5080954;28;20195;-78
2021/04/18 04:09:35;;;;;;;6.28;5.32;;;6.80;96.30;;;;;;5083284;28;20204;-80
2021/04/18 04:12:02;;;;;;;5.97;4.80;;;6.80;96.30;;;;;;5081266;28;20324;-78
2021/04/18 04:14:29;;;;;;;5.85;5.03;;;6.80;96.30;;;;;;5082478;28;20231;-78
2021/04/18 04:16:56;;;;;;;8.38;5.30;;;6.90;96.50;;;;;;5082068;28;20225;-78
2021/04/18 04:19:22;;;;;;;7.07;5.50;;;6.90;96.40;;;;;;5078718;28;20291;-78
2021/04/18 04:21:48;;;;;;;6.72;5.40;;;6.90;96.50;;;;;;5082437;28;20751;-79
2021/04/18 04:24:15;;;;;;;7.78;5.18;;;6.90;96.50;;;;;;5074436;28;20200;-79
2021/04/18 04:26:41;;;;;;;5.65;5.15;;;6.90;96.60;;;;;;5082493;28;20199;-77
2021/04/18 04:29:08;;;;;;;5.78;5.18;;;6.90;96.70;;;;;;5083039;28;20204;-78
2021/04/18 04:31:35;;;;;;;6.50;4.85;;;6.90;96.80;;;;;;5083748;28;20671;-78
2021/04/18 04:34:02;;;;;;;7.80;4.80;;;6.90;96.90;;;;;;5078487;28;20215;-78
2021/04/18 04:36:28;;;;;;;8.57;5.53;;;6.90;96.90;;;;;;5080618;28;20199;-78
2021/04/18 04:38:54;;;;;;;6.72;4.65;;;7.00;97.10;;;;;;5077085;28;20195;-77
2021/04/18 04:41:21;;;;;;;8.35;5.20;;;7.00;97.20;;;;;;5083449;28;20195;-78
2021/04/18 04:43:48;;;;;;;6.15;5.35;;;7.00;97.30;;;;;;5080057;28;20294;-79
2021/04/18 04:46:14;;;;;;;11.32;5.28;;;7.00;97.50;;;;;;5079771;28;20191;-78
2021/04/18 04:48:42;;;;;;;7.68;5.22;;;7.00;97.40;;;;;;5073517;28;20628;-80
2021/04/18 04:51:09;;;;;;;8.38;5.32;;;7.00;97.50;;;;;;5081060;28;20856;-78
2021/04/18 04:53:35;;;;;;;6.30;4.85;;;7.10;97.70;;;;;;5072860;28;20226;-78
2021/04/18 04:56:03;;;;;;;6.45;5.63;;;7.00;97.70;;;;;;5078753;28;20738;-79
2021/04/18 04:58:29;;;;;;;8.60;5.72;;;7.10;97.70;;;;;;5081992;28;20211;-78
2021/04/18 05:00:55;;;;;;;6.82;5.55;;;7.10;97.80;;;;;;5077517;28;20233;-78
2021/04/18 05:03:27;;;;;;;6.88;5.40;;;7.10;97.80;;;;;;5080139;28;20203;-79
2021/04/18 05:05:55;;;;;;;9.40;5.63;;;7.10;97.90;;;;;;5071526;28;20299;-78
2021/04/18 05:08:22;;;;;;;6.32;4.95;;;7.10;98.10;;;;;;5081702;28;20201;-79
2021/04/18 05:10:48;;;;;;;6.45;5.50;;;7.20;98.10;;;;;;5078602;28;20245;-78
2021/04/18 05:13:15;;;;;;;7.82;6.10;;;7.20;98.20;;;;;;5075537;28;20292;-78
2021/04/18 05:15:41;;;;;;;7.40;5.72;;;7.20;98.20;;;;;;5078190;28;20201;-78
2021/04/18 05:18:08;;;;;;;7.30;6.07;;;7.20;98.30;;;;;;5077577;28;20201;-78
2021/04/18 05:20:34;;;;;;;10.30;5.30;;;7.20;98.40;;;;;;5080803;28;20403;-78
2021/04/18 05:23:01;;;;;;;7.28;5.35;;;7.30;98.60;;;;;;5077061;28;20195;-78
2021/04/18 05:25:27;;;;;;;7.15;5.90;;;7.30;98.60;;;;;;5074642;28;20616;-80
2021/04/18 05:27:54;;;;;;;12.00;7.57;;;7.30;98.60;;;;;;5078218;28;20670;-78
2021/04/18 05:30:22;;;;;;;12.10;6.15;;;7.40;98.70;;;;;;5080215;28;20238;-78
2021/04/18 05:32:48;;;;;;;11.48;5.53;;;7.40;98.80;;;;;;5074219;28;20287;-77
2021/04/18 05:35:15;;;;;;;12.15;6.28;;;7.40;98.90;;;;;;5076463;28;20224;-78
2021/04/18 05:37:41;;;;;;;9.60;6.68;;;7.50;99.00;;;;;;5081294;28;20204;-80
2021/04/18 05:40:09;;;;;;;7.88;6.40;;;7.50;99.00;;;;;;5078954;28;20210;-78
2021/04/18 05:42:36;;;;;;;12.27;6.78;;;7.50;99.00;;;;;;5084451;28;20192;-78
2021/04/18 05:45:03;;;;;;;9.30;6.45;;;7.60;99.20;;;;;;5085754;28;20253;-78
2021/04/18 05:47:30;;;;;;;8.20;6.38;;;7.60;99.30;;;;;;5081563;28;20199;-78
2021/04/18 05:49:56;;;;;;;12.18;6.40;;;7.60;99.30;;;;;;5076794;28;20663;-78
2021/04/18 05:52:23;;;;;;;7.90;6.35;;;7.70;99.30;;;;;;5076092;28;20601;-78
2021/04/18 05:54:51;;;;;;;10.40;7.28;;;7.70;99.40;;;;;;5082928;28;20216;-80
2021/04/18 05:57:18;;;;;;;8.00;6.05;;;7.70;99.40;;;;;;5081243;28;20212;-78
2021/04/18 05:59:44;;;;;;;10.00;6.95;;;7.80;99.30;;;;;;5077582;28;20230;-77
2021/04/18 06:02:11;;;;;;;11.23;7.13;;;7.80;99.30;;;;;;5082385;28;20620;-77
2021/04/18 06:04:37;;;;;;;9.77;6.05;;;7.90;99.50;;;;;;5079136;28;20570;-81
2021/04/18 06:07:04;;;;;;;8.68;5.88;;;7.90;99.50;;;;;;5080097;28;20690;-78
2021/04/18 06:09:31;;;;;;;12.95;6.82;;;7.90;99.40;;;;;;5082696;28;20200;-79
2021/04/18 06:11:57;;;;;;;12.75;6.85;;;8.00;99.40;;;;;;5079257;28;20231;-78
2021/04/18 06:14:24;;;;;;;7.13;6.38;;;8.00;99.50;;;;;;5076240;28;20303;-78
2021/04/18 06:16:51;;;;;;;10.95;6.75;;;8.10;99.60;;;;;;5075509;28;20375;-78
2021/04/18 06:19:18;;;;;;;9.65;6.70;;;8.10;99.60;;;;;;5080903;28;20196;-78
2021/04/18 06:21:44;;;;;;;12.57;6.85;;;8.10;99.70;;;;;;5084387;28;20655;-79
2021/04/18 06:24:11;;;;;;;10.00;7.72;;;8.10;99.60;;;;;;5083446;28;20196;-78
2021/04/18 06:26:38;;;;;;;11.00;7.25;;;8.20;99.50;;;;;;5082877;28;20192;-77
2021/04/18 06:29:05;;;;;;;10.88;6.70;;;8.20;99.50;;;;;;5081421;28;20236;-78
2021/04/18 06:31:32;;;;;;;12.55;7.40;;;8.20;99.40;;;;;;5079612;28;20231;-78
2021/04/18 06:33:58;;;;;;;9.65;6.43;;;8.30;99.40;;;;;;5081748;28;20224;-78
2021/04/18 06:36:24;;;;;;;10.63;7.38;;;8.30;99.30;;;;;;5080471;28;20204;-78
2021/04/18 06:38:51;;;;;;;11.60;7.53;;;8.40;99.50;;;;;;5084523;28;20211;-78
2021/04/18 06:41:22;;;;;;;10.65;7.20;;;8.40;99.50;;;;;;5082594;28;20196;-78
2021/04/18 06:43:48;;;;;;;13.98;8.48;;;8.50;99.50;;;;;;5072267;28;22993;-78
2021/04/18 06:46:16;;;;;;;17.08;7.20;;;8.50;99.60;;;;;;5077310;28;20645;-78
2021/04/18 06:48:44;;;;;;;11.70;7.05;;;8.60;99.80;;;;;;5074807;28;20201;-78
2021/04/18 06:51:11;;;;;;;8.60;6.75;;;8.60;99.80;;;;;;5078461;28;20810;-80
2021/04/18 06:53:37;;;;;;;15.40;6.53;;;8.70;99.80;;;;;;5079235;28;20263;-78
2021/04/18 06:56:05;;;;;;;16.00;7.90;;;8.80;99.90;;;;;;5081582;28;20294;-81
2021/04/18 06:58:32;;;;;;;11.43;6.88;;;8.80;99.90;;;;;;5075147;28;20210;-79
2021/04/18 07:00:59;;;;;;;16.27;7.75;;;8.90;99.90;;;;;;5075568;28;21466;-79
2021/04/18 07:03:26;;;;;;;9.82;7.47;;;9.00;99.90;;;;;;5077165;28;20231;-79
2021/04/18 07:05:56;;;;;;;10.35;7.38;;;9.00;99.90;;;;;;5079588;28;20194;-79
2021/04/18 07:08:25;;;;;;;8.55;7.35;;;9.10;99.90;;;;;;5082002;28;20861;-77
2021/04/18 07:10:52;;;;;;;8.40;7.05;;;9.20;99.90;;;;;;5076663;28;20200;-78
2021/04/18 07:13:20;;;;;;;12.60;8.18;;;9.20;99.90;;;;;;5080979;28;20284;-77
2021/04/18 07:15:48;;;;;;;11.90;9.40;;;9.30;99.90;;;;;;5073846;28;20197;-80
2021/04/18 07:18:35;;;;;;;11.20;7.07;;;9.30;99.90;;;;;;5078518;28;20198;-79
2021/04/18 07:21:03;;;;;;;10.95;7.72;;;9.40;99.90;;;;;;5078449;28;20247;-79
2021/04/18 07:23:33;;;;;;;12.02;7.63;;;9.40;99.90;;;;;;5081879;28;20596;-80
2021/04/18 07:26:17;;;;;;;12.50;7.63;;;9.50;99.90;;;;;;5079467;28;20190;-78
2021/04/18 07:28:43;;;;;;;11.60;9.88;;;9.50;99.90;;;;;;5077533;28;20577;-78
2021/04/18 07:31:10;;;;;;;10.70;7.75;;;9.50;99.90;;;;;;5075263;28;20652;-77
2021/04/18 07:34:00;;;;;;;12.52;8.20;;;9.60;99.90;;;;;;5079984;28;20251;-80
2021/04/18 07:36:27;;;;;;;12.18;8.52;;;9.70;99.90;;;;;;5083100;28;20200;-80
2021/04/18 07:38:54;;;;;;;14.80;8.23;;;9.70;99.90;;;;;;5081238;28;20199;-78
2021/04/18 07:41:22;;;;;;;10.20;8.60;;;9.80;99.90;;;;;;5073321;28;20202;-77
2021/04/18 07:43:49;;;;;;;12.13;8.23;;;9.80;99.90;;;;;;5073773;28;20214;-79
2021/04/18 07:46:17;;;;;;;11.45;8.52;;;9.90;99.90;;;;;;5080090;28;20289;-77
2021/04/18 07:48:44;;;;;;;14.07;8.90;;;10.00;99.90;;;;;;5079596;28;20223;-78
2021/04/18 07:51:11;;;;;;;11.85;9.25;;;10.00;99.90;;;;;;5078688;28;20231;-78
2021/04/18 07:53:40;;;;;;;14.10;8.23;;;10.10;99.80;;;;;;5079111;28;20543;-78
2021/04/18 07:56:08;;;;;;;9.73;7.95;;;10.10;99.70;;;;;;5075205;28;20195;-80
2021/04/18 07:58:37;;;;;;;13.95;8.45;;;10.20;99.80;;;;;;5076426;28;20217;-79
2021/04/18 08:01:04;;;;;;;9.90;8.45;;;10.30;99.90;;;;;;5077204;28;20237;-78
2021/04/18 08:03:30;;;;;;;14.00;8.55;;;10.40;99.90;;;;;;5076381;28;20196;-82
2021/04/18 08:05:57;;;;;;;11.50;9.00;;;10.50;99.90;;;;;;5074867;28;20298;-81
2021/04/18 08:08:24;;;;;;;16.95;8.68;;;10.60;99.90;;;;;;5072861;28;20670;-78
2021/04/18 08:10:53;;;;;;;9.93;8.25;;;10.70;99.90;;;;;;5073145;28;20203;-78
2021/04/18 08:13:21;;;;;;;10.52;8.40;;;10.80;99.90;;;;;;5073857;28;20212;-79
2021/04/18 08:16:05;;;;;;;18.00;8.63;;;11.00;99.90;;;;;;5073972;28;20702;-78
2021/04/18 08:18:33;;;;;;;11.82;8.07;;;11.20;99.90;;;;;;5074322;28;20280;-78
2021/04/18 08:21:01;;;;;;;13.65;8.05;;;11.30;99.90;;;;;;5073932;28;20241;-78
2021/04/18 08:23:37;;;;;;;12.02;8.50;;;11.40;99.80;;;;;;5074442;28;20535;-78
2021/04/18 08:26:11;;;;;;;11.73;7.78;;;11.50;99.70;;;;;;5074239;28;20664;-78
2021/04/18 08:29:09;;;;;;;11.90;9.10;;;11.50;99.40;;;;;;5073738;28;20273;-79
2021/04/18 08:31:59;;;;;;;10.20;7.60;;;11.60;99.20;;;;;;5073403;28;20208;-78
2021/04/18 08:34:27;;;;;;;13.55;9.00;;;11.70;99.10;;;;;;5074028;28;20255;-79
2021/04/18 08:36:56;;;;;;;13.15;8.93;;;11.80;98.90;;;;;;5073143;28;20517;-78
2021/04/18 08:39:28;;;;;;;11.45;8.10;;;11.80;98.90;;;;;;5070910;28;20634;-80
2021/04/18 08:41:58;;;;;;;10.10;7.80;;;11.80;98.90;;;;;;5071994;28;20204;-78
2021/04/18 08:44:26;;;;;;;14.13;8.32;;;11.70;98.80;;;;;;5075868;28;20193;-80
2021/04/18 08:46:55;;;;;;;11.93;8.52;;;11.70;98.90;;;;;;5068712;28;20741;-80
2021/04/18 08:49:29;;;;;;;11.00;8.85;;;11.70;98.90;;;;;;5075776;28;20223;-78
2021/04/18 08:51:56;;;;;;;12.98;8.55;;;11.80;98.80;;;;;;5076551;28;20684;-78
2021/04/18 08:54:25;;;;;;;16.75;7.63;;;11.80;98.80;;;;;;5072083;28;20251;-79
2021/04/18 08:56:53;;;;;;;11.65;9.10;;;11.80;98.80;;;;;;5068760;28;20212;-79
2021/04/18 08:59:21;;;;;;;11.95;8.93;;;12.00;98.80;;;;;;5066366;28;20199;-78
2021/04/18 09:02:09;;;;;;;11.80;8.50;;;12.10;98.80;;;;;;5068549;28;20235;-79
2021/04/18 09:04:37;;;;;;;16.70;9.10;;;12.30;98.20;;;;;;5073358;28;20558;-79
2021/04/18 09:07:05;;;;;;;13.73;9.40;;;12.30;98.00;;;;;;5066144;28;20324;-81
2021/04/18 09:09:31;;;;;;;12.25;9.32;;;12.30;97.90;;;;;;5072810;28;20854;-79
2021/04/18 09:11:58;;;;;;;12.40;8.60;;;12.30;97.90;;;;;;5072055;28;20196;-81
2021/04/18 09:14:28;;;;;;;14.43;9.20;;;12.30;97.90;;;;;;5076386;28;20490;-78
2021/04/18 09:17:07;;;;;;;11.20;8.30;;;12.30;97.90;;;;;;5068151;28;20457;-78
2021/04/18 09:19:34;;;;;;;10.40;8.23;;;12.30;98.00;;;;;;5083675;28;20667;-78
2021/04/18 09:22:05;;;;;;;15.63;8.70;;;12.40;98.10;;;;;;5073201;28;20466;-77
2021/04/18 09:24:34;;;;;;;18.05;9.15;;;12.50;98.20;;;;;;5082612;28;20469;-77
2021/04/18 09:27:05;;;;;;;13.90;9.73;;;12.70;98.30;;;;;;5076479;28;20656;-79
2021/04/18 09:29:33;;;;;;;12.00;8.70;;;12.70;98.20;;;;;;5083079;28;20469;-79
2021/04/18 09:32:02;;;;;;;11.30;8.80;;;12.80;98.00;;;;;;5074978;28;21040;-78
2021/04/18 09:34:29;;;;;;;10.20;7.53;;;12.90;98.10;;;;;;5072770;28;20482;-78
2021/04/18 09:36:57;;;;;;;15.73;9.10;;;13.00;98.10;;;;;;5079695;28;20461;-78
2021/04/18 09:39:31;;;;;;;12.63;8.23;;;13.00;97.90;;;;;;5073280;28;20493;-78
2021/04/18 09:41:58;;;;;;;12.20;7.80;;;13.10;97.90;;;;;;5076868;28;20533;-78
2021/04/18 09:44:28;;;;;;;13.00;9.00;;;13.20;97.50;;;;;;5077980;28;21008;-78
2021/04/18 09:46:59;;;;;;;14.50;8.40;;;13.20;97.40;;;;;;5077611;28;21058;-77
2021/04/18 09:49:26;;;;;;;14.77;8.57;;;13.30;97.50;;;;;;5078635;28;20563;-79
2021/04/18 09:52:02;;;;;;;10.20;8.13;;;13.30;97.60;;;;;;5079894;28;20976;-80
2021/04/18 09:54:31;;;;;;;11.77;8.93;;;13.30;97.40;;;;;;5080047;28;20794;-78
2021/04/18 09:57:27;;;;;;;10.80;8.23;;;13.20;97.10;;;;;;5078445;28;20561;-78
2021/04/18 10:00:15;;;;;;;8.90;7.83;;;13.20;97.10;;;;;;4991816;28;20497;-79
2021/04/18 10:03:07;;;;;;;16.50;8.50;;;13.20;96.80;;;;;;5066839;28;20507;-78
2021/04/18 10:05:35;;;;;;;9.43;7.80;;;13.20;96.90;;;;;;5073653;28;20459;-78
2021/04/18 10:08:22;;;;;;;12.60;8.37;;;13.20;96.90;;;;;;5076487;28;20529;-78
2021/04/18 10:10:50;;;;;;;11.60;8.73;;;13.20;96.90;;;;;;5071838;28;20464;-77
2021/04/18 10:13:32;;;;;;;18.00;8.80;;;13.20;97.00;;;;;;5080193;28;20458;-77
2021/04/18 10:15:58;;;;;;;11.93;7.70;;;13.20;97.00;;;;;;5072802;28;20518;-77
2021/04/18 10:18:25;;;;;;;8.30;6.77;;;13.30;97.00;;;;;;5072402;28;20977;-79
2021/04/18 10:20:52;;;;;;;10.27;7.90;;;13.40;96.90;;;;;;5079261;28;21223;-80
2021/04/18 10:23:18;;;;;;;11.97;8.03;;;13.40;96.60;;;;;;5070938;28;21220;-78
2021/04/18 10:25:45;;;;;;;8.90;7.97;;;13.50;96.40;;;;;;5070749;28;20470;-79
2021/04/18 10:28:11;;;;;;;21.20;9.40;;;13.60;96.50;;;;;;5075170;28;20473;-78
2021/04/18 10:30:39;;;;;;;11.87;7.97;;;13.70;96.50;;;;;;5075556;28;20459;-79
2021/04/18 10:33:06;;;;;;;11.97;9.30;;;13.80;96.60;;;;;;5079386;28;20459;-78
2021/04/18 10:35:34;;;;;;;11.07;7.80;;;14.00;96.70;;;;;;5077102;28;21152;-78
2021/04/18 10:38:00;;;;;;;13.33;8.27;;;14.10;96.70;;;;;;5067440;28;20543;-78
2021/04/18 10:40:28;;;;;;;9.53;6.73;;;14.20;95.10;;;;;;5075889;28;20611;-78
2021/04/18 10:42:55;;;;;;;9.77;6.80;;;14.30;95.40;;;;;;5077313;28;20474;-79
2021/04/18 10:45:21;;;;;;;8.50;6.43;;;14.30;95.10;;;;;;5081135;28;20461;-78
2021/04/18 10:47:48;;;;;;;8.93;7.13;;;14.30;94.30;;;;;;5075582;28;20966;-79
2021/04/18 10:50:14;;;;;;;11.80;7.47;;;14.30;94.00;;;;;;5074170;28;20805;-80
2021/04/18 10:52:42;;;;;;;12.07;7.60;;;14.30;94.20;;;;;;5071403;28;20469;-79
2021/04/18 10:55:10;;;;;;;13.97;7.10;;;14.30;94.00;;;;;;5070740;28;20590;-78
2021/04/18 10:57:36;;;;;;;12.73;7.00;;;14.40;94.10;;;;;;5075261;28;20889;-81
2021/04/18 11:00:05;;;;;;;11.03;7.33;;;14.40;93.50;;;;;;5072905;28;20498;-78
2021/04/18 11:02:32;;;;;;;9.43;6.83;;;14.40;93.50;;;;;;5072068;28;20545;-79
2021/04/18 11:04:58;;;;;;;8.57;6.20;;;14.40;92.70;;;;;;5073947;28;20481;-79
2021/04/18 11:07:24;;;;;;;9.00;7.13;;;14.50;93.00;;;;;;5076213;28;20462;-78
2021/04/18 11:09:52;;;;;;;11.03;7.00;;;14.50;92.50;;;;;;5076425;28;20494;-79
2021/04/18 11:12:19;;;;;;;9.67;7.00;;;14.50;92.40;;;;;;5071006;28;20479;-80
2021/04/18 11:14:46;;;;;;;24.60;8.80;;;14.50;92.50;;;;;;5071708;28;20500;-78
2021/04/18 11:17:12;;;;;;;10.20;6.47;;;14.50;92.60;;;;;;5077748;28;20976;-77
2021/04/18 11:19:39;;;;;;;9.63;6.97;;;14.60;92.90;;;;;;5073156;28;20965;-78
2021/04/18 11:22:05;;;;;;;8.00;6.60;;;14.70;92.90;;;;;;5077795;28;20505;-81
2021/04/18 11:24:32;;;;;;;15.73;6.70;;;14.80;92.60;;;;;;5072906;28;20471;-78
2021/04/18 11:26:59;;;;;;;8.93;6.27;;;14.70;91.20;;;;;;5074500;28;20527;-77
2021/04/18 11:29:25;;;;;;;6.80;6.10;;;14.70;91.80;;;;;;5071798;28;20548;-80
2021/04/18 11:31:52;;;;;;;11.10;6.73;;;14.80;92.40;;;;;;5072154;28;20474;-77
2021/04/18 11:34:18;;;;;;;9.23;5.87;;;14.80;92.30;;;;;;5076007;28;20875;-78
2021/04/18 11:36:45;;;;;;;8.37;5.90;;;14.80;92.00;;;;;;5072065;28;20464;-80
2021/04/18 11:39:11;;;;;;;6.33;5.30;;;14.90;92.20;;;;;;5075964;28;21295;-78
2021/04/18 11:41:37;;;;;;;8.90;7.20;;;14.90;91.90;;;;;;5074233;28;20588;-78
2021/04/18 11:44:06;;;;;;;10.60;6.90;;;14.90;91.50;;;;;;5067942;28;20470;-78
2021/04/18 11:46:34;;;;;;;9.00;5.90;;;15.00;91.70;;;;;;5071400;28;21072;-80
2021/04/18 11:49:00;;;;;;;8.67;6.20;;;15.00;91.80;;;;;;5072813;28;20828;-78
2021/04/18 11:51:27;;;;;;;7.07;6.23;;;15.10;92.00;;;;;;5073278;28;20542;-79
2021/04/18 11:53:54;;;;;;;11.80;6.80;;;15.10;91.70;;;;;;5075595;28;20468;-78
2021/04/18 11:56:20;;;;;;;8.93;6.67;;;15.20;91.80;;;;;;5073871;28;20516;-80
2021/04/18 11:58:46;;;;;;;8.63;7.27;;;15.20;91.90;;;;;;5073315;28;20468;-79
2021/04/18 12:01:14;;;;;;;11.00;6.63;;;15.30;91.70;;;;;;5072929;28;20483;-78
2021/04/18 12:03:40;;;;;;;9.40;5.90;;;15.30;91.90;;;;;;5071070;28;20497;-78
2021/04/18 12:06:07;;;;;;;9.50;7.60;;;15.30;92.10;;;;;;5071596;28;21474;-78
2021/04/18 12:08:35;;;;;;;11.30;6.70;;;15.40;92.10;;;;;;5069678;28;21289;-78
2021/04/18 12:11:02;;;;;;;7.67;5.97;;;15.40;92.10;;;;;;5067781;28;21175;-79
2021/04/18 12:13:28;;;;;;;7.47;5.93;;;15.50;91.90;;;;;;5067003;28;20503;-78
2021/04/18 12:15:55;;;;;;;10.23;7.27;;;15.50;90.50;;;;;;5069316;28;20498;-78
2021/04/18 12:18:22;;;;;;;9.13;6.70;;;15.50;90.40;;;;;;5067763;28;20471;-77
2021/04/18 12:20:49;;;;;;;10.03;6.23;;;15.50;90.30;;;;;;5067122;28;20640;-79
2021/04/18 12:23:16;;;;;;;7.67;6.37;;;15.50;90.00;;;;;;5068926;28;20543;-80
2021/04/18 12:25:42;;;;;;;8.27;5.70;;;15.40;90.60;;;;;;5073298;28;20470;-82
2021/04/18 12:28:10;;;;;;;10.03;6.90;;;15.50;91.00;;;;;;5067866;28;21490;-80
2021/04/18 12:30:36;;;;;;;7.43;6.47;;;15.60;91.30;;;;;;5065362;28;20464;-78
2021/04/18 12:33:03;;;;;;;8.77;6.53;;;15.60;91.50;;;;;;5073615;28;21017;-81
2021/04/18 12:35:30;;;;;;;6.53;5.60;;;15.70;91.30;;;;;;5075974;28;20510;-80
2021/04/18 12:37:57;;;;;;;10.53;6.70;;;15.70;91.50;;;;;;5074858;28;20469;-79
2021/04/18 12:40:24;;;;;;;7.30;6.53;;;15.80;91.30;;;;;;5071290;28;21516;-78
2021/04/18 12:42:50;;;;;;;8.03;7.23;;;15.80;90.80;;;;;;5069596;28;20487;-79
2021/04/18 12:45:17;;;;;;;11.10;5.70;;;15.90;90.70;;;;;;5079737;28;20481;-79
2021/04/18 12:47:44;;;;;;;7.90;6.23;;;16.00;90.50;;;;;;5079263;28;20470;-78
2021/04/18 12:50:11;;;;;;;9.27;6.60;;;16.10;90.50;;;;;;5079723;28;20469;-81
2021/04/18 12:52:39;;;;;;;11.00;5.93;;;16.10;89.80;;;;;;5068697;28;20592;-78